<?xml version="1.0" encoding="UTF-8" standalone="no" ?>
<gpx xmlns="http://www.topografix.com/GPX/1/1" xmlns:xsi="http://www.w3.org/2001/XMLSchema-instance" xsi:schemaLocation="http://www.topografix.com/GPX/1/1 http://www.topografix.com/GPX/1/1/gpx.xsd" version="1.1" creator="VisuGPX - https://www.visugpx.com">
  <metadata>
    <name>Trace marche Odyssea</name>
    <desc><![CDATA[Trace de la marche Odyssea 5 km ]]></desc>
  </metadata>
  <trk>
    <name><![CDATA[2017-03-19 14:14]]></name>
    <desc><![CDATA[<p>Heure de départ: 03/19/2017 14:14<br/>Heure d'arrivée: 03/19/2017 15:25<br/>Distance: 4,3 km (01:10)<br/>Temps déplacement: 01:08<br/>Vitesse moyenne: 3,62 km/h<br/>Vitesse moyenne mouv.: 3,73 km/h<br/>Vitesse Max.: 11,26 km/h<br/>Altitude minimale: -8 m<br/>Altitude maximale: 28 m<br/>Vitesse de montée: 137,2 m/h<br/>Vitesse de descente: -183,2 m/h<br/>Gain d'altitude: 53 m<br/>Perte d'altitude: -85 m<br/>Temps de montée: 00:23<br/>Temps de descente: 00:28<br/></p><hr align="center" width="480" style="height: 2px; width: 517px"/>]]></desc>
    <trkseg>
      <trkpt lat="47.21973" lon="-1.54955">
        <ele>23</ele>
        <time>2017-03-19T13:13:33Z</time>
      </trkpt>
      <trkpt lat="47.22127" lon="-1.55085">
        <ele>26.7</ele>
        <time>2017-03-19T13:14:30Z</time>
      </trkpt>
      <trkpt lat="47.22144" lon="-1.55093">
        <ele>28.74</ele>
        <time>2017-03-19T13:15:00Z</time>
      </trkpt>
      <trkpt lat="47.22163" lon="-1.551">
        <ele>27.92</ele>
        <time>2017-03-19T13:15:19Z</time>
      </trkpt>
      <trkpt lat="47.22181" lon="-1.55107">
        <ele>26.96</ele>
        <time>2017-03-19T13:15:39Z</time>
      </trkpt>
      <trkpt lat="47.22199" lon="-1.55108">
        <ele>26.04</ele>
        <time>2017-03-19T13:15:55Z</time>
      </trkpt>
      <trkpt lat="47.22215" lon="-1.55126">
        <ele>23.66</ele>
        <time>2017-03-19T13:16:17Z</time>
      </trkpt>
      <trkpt lat="47.22231" lon="-1.5514">
        <ele>21.52</ele>
        <time>2017-03-19T13:16:32Z</time>
      </trkpt>
      <trkpt lat="47.22247" lon="-1.55157">
        <ele>19.09</ele>
        <time>2017-03-19T13:16:56Z</time>
      </trkpt>
      <trkpt lat="47.22259" lon="-1.55177">
        <ele>17.38</ele>
        <time>2017-03-19T13:17:14Z</time>
      </trkpt>
      <trkpt lat="47.22272" lon="-1.55197">
        <ele>16.44</ele>
        <time>2017-03-19T13:17:38Z</time>
      </trkpt>
      <trkpt lat="47.2229" lon="-1.55205">
        <ele>17.14</ele>
        <time>2017-03-19T13:17:56Z</time>
      </trkpt>
      <trkpt lat="47.22292" lon="-1.55233">
        <ele>17.22</ele>
        <time>2017-03-19T13:18:15Z</time>
      </trkpt>
      <trkpt lat="47.22295" lon="-1.55261">
        <ele>17.45</ele>
        <time>2017-03-19T13:18:35Z</time>
      </trkpt>
      <trkpt lat="47.22291" lon="-1.55287">
        <ele>17.12</ele>
        <time>2017-03-19T13:18:52Z</time>
      </trkpt>
      <trkpt lat="47.22286" lon="-1.55313">
        <ele>15.45</ele>
        <time>2017-03-19T13:19:09Z</time>
      </trkpt>
      <trkpt lat="47.22284" lon="-1.55339">
        <ele>13.91</ele>
        <time>2017-03-19T13:19:24Z</time>
      </trkpt>
      <trkpt lat="47.22293" lon="-1.55363">
        <ele>12.84</ele>
        <time>2017-03-19T13:19:44Z</time>
      </trkpt>
      <trkpt lat="47.22308" lon="-1.55379">
        <ele>12.51</ele>
        <time>2017-03-19T13:20:00Z</time>
      </trkpt>
      <trkpt lat="47.22321" lon="-1.55398">
        <ele>12.47</ele>
        <time>2017-03-19T13:20:17Z</time>
      </trkpt>
      <trkpt lat="47.2234" lon="-1.55397">
        <ele>13.02</ele>
        <time>2017-03-19T13:20:40Z</time>
      </trkpt>
      <trkpt lat="47.22356" lon="-1.55384">
        <ele>13.31</ele>
        <time>2017-03-19T13:20:55Z</time>
      </trkpt>
      <trkpt lat="47.22372" lon="-1.55371">
        <ele>13.34</ele>
        <time>2017-03-19T13:21:12Z</time>
      </trkpt>
      <trkpt lat="47.22387" lon="-1.55357">
        <ele>12.89</ele>
        <time>2017-03-19T13:21:41Z</time>
      </trkpt>
      <trkpt lat="47.22405" lon="-1.55364">
        <ele>12.5</ele>
        <time>2017-03-19T13:21:59Z</time>
      </trkpt>
      <trkpt lat="47.22422" lon="-1.55377">
        <ele>12.25</ele>
        <time>2017-03-19T13:22:14Z</time>
      </trkpt>
      <trkpt lat="47.22437" lon="-1.55391">
        <ele>11.94</ele>
        <time>2017-03-19T13:22:34Z</time>
      </trkpt>
      <trkpt lat="47.22452" lon="-1.55408">
        <ele>11.61</ele>
        <time>2017-03-19T13:22:49Z</time>
      </trkpt>
      <trkpt lat="47.22463" lon="-1.5543">
        <ele>10.98</ele>
        <time>2017-03-19T13:23:10Z</time>
      </trkpt>
      <trkpt lat="47.22475" lon="-1.55452">
        <ele>10.47</ele>
        <time>2017-03-19T13:23:31Z</time>
      </trkpt>
      <trkpt lat="47.22485" lon="-1.55474">
        <ele>10.3</ele>
        <time>2017-03-19T13:23:48Z</time>
      </trkpt>
      <trkpt lat="47.22496" lon="-1.55496">
        <ele>10.51</ele>
        <time>2017-03-19T13:24:06Z</time>
      </trkpt>
      <trkpt lat="47.2251" lon="-1.55516">
        <ele>11.87</ele>
        <time>2017-03-19T13:24:25Z</time>
      </trkpt>
      <trkpt lat="47.22525" lon="-1.55529">
        <ele>13</ele>
        <time>2017-03-19T13:24:41Z</time>
      </trkpt>
      <trkpt lat="47.22542" lon="-1.55544">
        <ele>14.29</ele>
        <time>2017-03-19T13:25:00Z</time>
      </trkpt>
      <trkpt lat="47.22557" lon="-1.55559">
        <ele>14.88</ele>
        <time>2017-03-19T13:25:14Z</time>
      </trkpt>
      <trkpt lat="47.22575" lon="-1.55569">
        <ele>14.97</ele>
        <time>2017-03-19T13:25:33Z</time>
      </trkpt>
      <trkpt lat="47.22593" lon="-1.55572">
        <ele>14.78</ele>
        <time>2017-03-19T13:25:52Z</time>
      </trkpt>
      <trkpt lat="47.22612" lon="-1.55574">
        <ele>14.22</ele>
        <time>2017-03-19T13:26:09Z</time>
      </trkpt>
      <trkpt lat="47.2263" lon="-1.55575">
        <ele>13.62</ele>
        <time>2017-03-19T13:26:25Z</time>
      </trkpt>
      <trkpt lat="47.22648" lon="-1.55567">
        <ele>12.87</ele>
        <time>2017-03-19T13:26:44Z</time>
      </trkpt>
      <trkpt lat="47.22667" lon="-1.55562">
        <ele>12.08</ele>
        <time>2017-03-19T13:27:02Z</time>
      </trkpt>
      <trkpt lat="47.22684" lon="-1.55554">
        <ele>10.93</ele>
        <time>2017-03-19T13:27:20Z</time>
      </trkpt>
      <trkpt lat="47.227" lon="-1.5554">
        <ele>9.85</ele>
        <time>2017-03-19T13:27:36Z</time>
      </trkpt>
      <trkpt lat="47.22714" lon="-1.55522">
        <ele>8.52</ele>
        <time>2017-03-19T13:27:52Z</time>
      </trkpt>
      <trkpt lat="47.22727" lon="-1.55503">
        <ele>6.3</ele>
        <time>2017-03-19T13:28:07Z</time>
      </trkpt>
      <trkpt lat="47.2274" lon="-1.55484">
        <ele>3.54</ele>
        <time>2017-03-19T13:28:25Z</time>
      </trkpt>
      <trkpt lat="47.22755" lon="-1.55467">
        <ele>1.49</ele>
        <time>2017-03-19T13:28:40Z</time>
      </trkpt>
      <trkpt lat="47.2277" lon="-1.55448">
        <ele>-0.09</ele>
        <time>2017-03-19T13:29:00Z</time>
      </trkpt>
      <trkpt lat="47.22784" lon="-1.55431">
        <ele>-0.82</ele>
        <time>2017-03-19T13:29:18Z</time>
      </trkpt>
      <trkpt lat="47.22796" lon="-1.55411">
        <ele>-1.04</ele>
        <time>2017-03-19T13:29:38Z</time>
      </trkpt>
      <trkpt lat="47.2281" lon="-1.55393">
        <ele>-0.66</ele>
        <time>2017-03-19T13:29:56Z</time>
      </trkpt>
      <trkpt lat="47.22824" lon="-1.55374">
        <ele>0.18</ele>
        <time>2017-03-19T13:30:13Z</time>
      </trkpt>
      <trkpt lat="47.22836" lon="-1.55355">
        <ele>0.9</ele>
        <time>2017-03-19T13:30:30Z</time>
      </trkpt>
      <trkpt lat="47.22854" lon="-1.55351">
        <ele>1.88</ele>
        <time>2017-03-19T13:30:52Z</time>
      </trkpt>
      <trkpt lat="47.22873" lon="-1.55352">
        <ele>2.79</ele>
        <time>2017-03-19T13:31:13Z</time>
      </trkpt>
      <trkpt lat="47.22886" lon="-1.55372">
        <ele>3.85</ele>
        <time>2017-03-19T13:31:29Z</time>
      </trkpt>
      <trkpt lat="47.22896" lon="-1.55394">
        <ele>5.56</ele>
        <time>2017-03-19T13:31:47Z</time>
      </trkpt>
      <trkpt lat="47.2291" lon="-1.55411">
        <ele>7.3</ele>
        <time>2017-03-19T13:32:04Z</time>
      </trkpt>
      <trkpt lat="47.22924" lon="-1.5543">
        <ele>9.14</ele>
        <time>2017-03-19T13:32:22Z</time>
      </trkpt>
      <trkpt lat="47.2294" lon="-1.55442">
        <ele>10.67</ele>
        <time>2017-03-19T13:32:37Z</time>
      </trkpt>
      <trkpt lat="47.22959" lon="-1.5544">
        <ele>12.8</ele>
        <time>2017-03-19T13:32:59Z</time>
      </trkpt>
      <trkpt lat="47.22978" lon="-1.55432">
        <ele>13.74</ele>
        <time>2017-03-19T13:33:13Z</time>
      </trkpt>
      <trkpt lat="47.22995" lon="-1.55422">
        <ele>14.45</ele>
        <time>2017-03-19T13:33:30Z</time>
      </trkpt>
      <trkpt lat="47.23007" lon="-1.55401">
        <ele>15.14</ele>
        <time>2017-03-19T13:33:54Z</time>
      </trkpt>
      <trkpt lat="47.23024" lon="-1.55389">
        <ele>15.97</ele>
        <time>2017-03-19T13:34:30Z</time>
      </trkpt>
      <trkpt lat="47.23038" lon="-1.5537">
        <ele>16.53</ele>
        <time>2017-03-19T13:34:49Z</time>
      </trkpt>
      <trkpt lat="47.2305" lon="-1.55349">
        <ele>17.02</ele>
        <time>2017-03-19T13:35:07Z</time>
      </trkpt>
      <trkpt lat="47.23065" lon="-1.55335">
        <ele>17.56</ele>
        <time>2017-03-19T13:35:26Z</time>
      </trkpt>
      <trkpt lat="47.2308" lon="-1.55318">
        <ele>18.14</ele>
        <time>2017-03-19T13:35:41Z</time>
      </trkpt>
      <trkpt lat="47.23096" lon="-1.55304">
        <ele>18.95</ele>
        <time>2017-03-19T13:35:54Z</time>
      </trkpt>
      <trkpt lat="47.23111" lon="-1.55289">
        <ele>19.86</ele>
        <time>2017-03-19T13:36:10Z</time>
      </trkpt>
      <trkpt lat="47.23128" lon="-1.55276">
        <ele>20.66</ele>
        <time>2017-03-19T13:36:25Z</time>
      </trkpt>
      <trkpt lat="47.23143" lon="-1.55261">
        <ele>21.58</ele>
        <time>2017-03-19T13:36:40Z</time>
      </trkpt>
      <trkpt lat="47.23159" lon="-1.55247">
        <ele>22.22</ele>
        <time>2017-03-19T13:36:53Z</time>
      </trkpt>
      <trkpt lat="47.23176" lon="-1.55236">
        <ele>22.76</ele>
        <time>2017-03-19T13:37:13Z</time>
      </trkpt>
      <trkpt lat="47.23195" lon="-1.55235">
        <ele>23.33</ele>
        <time>2017-03-19T13:37:30Z</time>
      </trkpt>
      <trkpt lat="47.23205" lon="-1.55211">
        <ele>24.25</ele>
        <time>2017-03-19T13:37:48Z</time>
      </trkpt>
      <trkpt lat="47.23208" lon="-1.55185">
        <ele>24.29</ele>
        <time>2017-03-19T13:38:04Z</time>
      </trkpt>
      <trkpt lat="47.23211" lon="-1.55158">
        <ele>23.65</ele>
        <time>2017-03-19T13:38:22Z</time>
      </trkpt>
      <trkpt lat="47.23214" lon="-1.55132">
        <ele>23.28</ele>
        <time>2017-03-19T13:38:40Z</time>
      </trkpt>
      <trkpt lat="47.23219" lon="-1.55106">
        <ele>22.94</ele>
        <time>2017-03-19T13:38:57Z</time>
      </trkpt>
      <trkpt lat="47.23223" lon="-1.55078">
        <ele>22.34</ele>
        <time>2017-03-19T13:39:17Z</time>
      </trkpt>
      <trkpt lat="47.2323" lon="-1.55054">
        <ele>21.49</ele>
        <time>2017-03-19T13:39:37Z</time>
      </trkpt>
      <trkpt lat="47.23235" lon="-1.55027">
        <ele>20.87</ele>
        <time>2017-03-19T13:39:52Z</time>
      </trkpt>
      <trkpt lat="47.23237" lon="-1.55">
        <ele>20.37</ele>
        <time>2017-03-19T13:40:07Z</time>
      </trkpt>
      <trkpt lat="47.23241" lon="-1.54973">
        <ele>19.47</ele>
        <time>2017-03-19T13:40:27Z</time>
      </trkpt>
      <trkpt lat="47.23255" lon="-1.54955">
        <ele>18.25</ele>
        <time>2017-03-19T13:40:48Z</time>
      </trkpt>
      <trkpt lat="47.23274" lon="-1.5496">
        <ele>17.5</ele>
        <time>2017-03-19T13:41:05Z</time>
      </trkpt>
      <trkpt lat="47.23292" lon="-1.54961">
        <ele>17.02</ele>
        <time>2017-03-19T13:41:22Z</time>
      </trkpt>
      <trkpt lat="47.2331" lon="-1.54963">
        <ele>16.76</ele>
        <time>2017-03-19T13:41:41Z</time>
      </trkpt>
      <trkpt lat="47.23328" lon="-1.54969">
        <ele>16.76</ele>
        <time>2017-03-19T13:41:59Z</time>
      </trkpt>
      <trkpt lat="47.23346" lon="-1.54976">
        <ele>17.04</ele>
        <time>2017-03-19T13:42:18Z</time>
      </trkpt>
      <trkpt lat="47.23365" lon="-1.54978">
        <ele>17.29</ele>
        <time>2017-03-19T13:42:34Z</time>
      </trkpt>
      <trkpt lat="47.23383" lon="-1.5498">
        <ele>16.99</ele>
        <time>2017-03-19T13:42:56Z</time>
      </trkpt>
      <trkpt lat="47.23402" lon="-1.54978">
        <ele>16.79</ele>
        <time>2017-03-19T13:43:14Z</time>
      </trkpt>
      <trkpt lat="47.2342" lon="-1.5498">
        <ele>16.77</ele>
        <time>2017-03-19T13:43:30Z</time>
      </trkpt>
      <trkpt lat="47.2344" lon="-1.5498">
        <ele>16.75</ele>
        <time>2017-03-19T13:43:56Z</time>
      </trkpt>
      <trkpt lat="47.23444" lon="-1.54954">
        <ele>16.31</ele>
        <time>2017-03-19T13:44:14Z</time>
      </trkpt>
      <trkpt lat="47.23444" lon="-1.54927">
        <ele>15.27</ele>
        <time>2017-03-19T13:44:35Z</time>
      </trkpt>
      <trkpt lat="47.23427" lon="-1.54913">
        <ele>13.61</ele>
        <time>2017-03-19T13:44:59Z</time>
      </trkpt>
      <trkpt lat="47.23408" lon="-1.54911">
        <ele>12.25</ele>
        <time>2017-03-19T13:45:15Z</time>
      </trkpt>
      <trkpt lat="47.2339" lon="-1.54909">
        <ele>10.38</ele>
        <time>2017-03-19T13:45:35Z</time>
      </trkpt>
      <trkpt lat="47.2337" lon="-1.54906">
        <ele>9.29</ele>
        <time>2017-03-19T13:45:52Z</time>
      </trkpt>
      <trkpt lat="47.23351" lon="-1.54905">
        <ele>8.5</ele>
        <time>2017-03-19T13:46:06Z</time>
      </trkpt>
      <trkpt lat="47.23332" lon="-1.54904">
        <ele>7.62</ele>
        <time>2017-03-19T13:46:25Z</time>
      </trkpt>
      <trkpt lat="47.23313" lon="-1.54904">
        <ele>6.71</ele>
        <time>2017-03-19T13:46:41Z</time>
      </trkpt>
      <trkpt lat="47.23296" lon="-1.54891">
        <ele>6.15</ele>
        <time>2017-03-19T13:46:54Z</time>
      </trkpt>
      <trkpt lat="47.23277" lon="-1.54895">
        <ele>6.41</ele>
        <time>2017-03-19T13:47:11Z</time>
      </trkpt>
      <trkpt lat="47.2326" lon="-1.54902">
        <ele>6.51</ele>
        <time>2017-03-19T13:47:26Z</time>
      </trkpt>
      <trkpt lat="47.23241" lon="-1.54902">
        <ele>7.02</ele>
        <time>2017-03-19T13:47:39Z</time>
      </trkpt>
      <trkpt lat="47.23224" lon="-1.54911">
        <ele>7.78</ele>
        <time>2017-03-19T13:47:56Z</time>
      </trkpt>
      <trkpt lat="47.22728" lon="-1.55227">
        <ele>28.36</ele>
        <time>2017-03-19T13:57:48Z</time>
      </trkpt>
      <trkpt lat="47.2271" lon="-1.5523">
        <ele>-8.86</ele>
        <time>2017-03-19T13:57:49Z</time>
      </trkpt>
      <trkpt lat="47.22722" lon="-1.55249">
        <ele>1.59</ele>
        <time>2017-03-19T13:58:01Z</time>
      </trkpt>
      <trkpt lat="47.22724" lon="-1.55276">
        <ele>6.34</ele>
        <time>2017-03-19T13:58:15Z</time>
      </trkpt>
      <trkpt lat="47.2272" lon="-1.55302">
        <ele>7.89</ele>
        <time>2017-03-19T13:58:31Z</time>
      </trkpt>
      <trkpt lat="47.22704" lon="-1.55316">
        <ele>7.91</ele>
        <time>2017-03-19T13:58:43Z</time>
      </trkpt>
      <trkpt lat="47.22687" lon="-1.55324">
        <ele>7.76</ele>
        <time>2017-03-19T13:59:01Z</time>
      </trkpt>
      <trkpt lat="47.22669" lon="-1.55326">
        <ele>7.66</ele>
        <time>2017-03-19T13:59:17Z</time>
      </trkpt>
      <trkpt lat="47.22652" lon="-1.55315">
        <ele>7.66</ele>
        <time>2017-03-19T13:59:30Z</time>
      </trkpt>
      <trkpt lat="47.22634" lon="-1.5531">
        <ele>7</ele>
        <time>2017-03-19T13:59:46Z</time>
      </trkpt>
      <trkpt lat="47.22615" lon="-1.55308">
        <ele>6.45</ele>
        <time>2017-03-19T13:59:59Z</time>
      </trkpt>
      <trkpt lat="47.22596" lon="-1.55303">
        <ele>5.78</ele>
        <time>2017-03-19T14:00:12Z</time>
      </trkpt>
      <trkpt lat="47.22578" lon="-1.55302">
        <ele>5.18</ele>
        <time>2017-03-19T14:00:28Z</time>
      </trkpt>
      <trkpt lat="47.22559" lon="-1.55298">
        <ele>4.88</ele>
        <time>2017-03-19T14:00:42Z</time>
      </trkpt>
      <trkpt lat="47.22541" lon="-1.55291">
        <ele>4.5</ele>
        <time>2017-03-19T14:01:00Z</time>
      </trkpt>
      <trkpt lat="47.22522" lon="-1.55291">
        <ele>4.27</ele>
        <time>2017-03-19T14:01:15Z</time>
      </trkpt>
      <trkpt lat="47.22503" lon="-1.5529">
        <ele>4.16</ele>
        <time>2017-03-19T14:01:30Z</time>
      </trkpt>
      <trkpt lat="47.22486" lon="-1.55282">
        <ele>4.05</ele>
        <time>2017-03-19T14:01:45Z</time>
      </trkpt>
      <trkpt lat="47.22467" lon="-1.55277">
        <ele>3.85</ele>
        <time>2017-03-19T14:02:01Z</time>
      </trkpt>
      <trkpt lat="47.22448" lon="-1.55274">
        <ele>3.71</ele>
        <time>2017-03-19T14:02:14Z</time>
      </trkpt>
      <trkpt lat="47.2243" lon="-1.5527">
        <ele>3.74</ele>
        <time>2017-03-19T14:02:30Z</time>
      </trkpt>
      <trkpt lat="47.22412" lon="-1.55272">
        <ele>3.65</ele>
        <time>2017-03-19T14:02:46Z</time>
      </trkpt>
      <trkpt lat="47.22394" lon="-1.55269">
        <ele>3.8</ele>
        <time>2017-03-19T14:03:00Z</time>
      </trkpt>
      <trkpt lat="47.22376" lon="-1.55262">
        <ele>3.89</ele>
        <time>2017-03-19T14:03:16Z</time>
      </trkpt>
      <trkpt lat="47.22358" lon="-1.55255">
        <ele>3.89</ele>
        <time>2017-03-19T14:03:30Z</time>
      </trkpt>
      <trkpt lat="47.2234" lon="-1.55251">
        <ele>3.88</ele>
        <time>2017-03-19T14:03:45Z</time>
      </trkpt>
      <trkpt lat="47.22322" lon="-1.55245">
        <ele>3.9</ele>
        <time>2017-03-19T14:03:57Z</time>
      </trkpt>
      <trkpt lat="47.22306" lon="-1.55233">
        <ele>4.04</ele>
        <time>2017-03-19T14:04:12Z</time>
      </trkpt>
      <trkpt lat="47.22297" lon="-1.55209">
        <ele>4.3</ele>
        <time>2017-03-19T14:04:27Z</time>
      </trkpt>
      <trkpt lat="47.22308" lon="-1.55187">
        <ele>4.64</ele>
        <time>2017-03-19T14:04:41Z</time>
      </trkpt>
      <trkpt lat="47.22316" lon="-1.55161">
        <ele>5.16</ele>
        <time>2017-03-19T14:04:55Z</time>
      </trkpt>
      <trkpt lat="47.22329" lon="-1.55142">
        <ele>5.95</ele>
        <time>2017-03-19T14:05:08Z</time>
      </trkpt>
      <trkpt lat="47.22341" lon="-1.55121">
        <ele>6.73</ele>
        <time>2017-03-19T14:05:22Z</time>
      </trkpt>
      <trkpt lat="47.22355" lon="-1.55103">
        <ele>7.46</ele>
        <time>2017-03-19T14:05:36Z</time>
      </trkpt>
      <trkpt lat="47.2237" lon="-1.55085">
        <ele>8.19</ele>
        <time>2017-03-19T14:05:51Z</time>
      </trkpt>
      <trkpt lat="47.22366" lon="-1.55059">
        <ele>9.86</ele>
        <time>2017-03-19T14:06:26Z</time>
      </trkpt>
      <trkpt lat="47.2235" lon="-1.55047">
        <ele>10.69</ele>
        <time>2017-03-19T14:06:44Z</time>
      </trkpt>
      <trkpt lat="47.22332" lon="-1.55038">
        <ele>11.57</ele>
        <time>2017-03-19T14:07:10Z</time>
      </trkpt>
      <trkpt lat="47.22316" lon="-1.55025">
        <ele>12.03</ele>
        <time>2017-03-19T14:07:24Z</time>
      </trkpt>
      <trkpt lat="47.22298" lon="-1.55012">
        <ele>12.48</ele>
        <time>2017-03-19T14:07:36Z</time>
      </trkpt>
      <trkpt lat="47.22281" lon="-1.55003">
        <ele>12.88</ele>
        <time>2017-03-19T14:07:47Z</time>
      </trkpt>
      <trkpt lat="47.22267" lon="-1.54983">
        <ele>13.51</ele>
        <time>2017-03-19T14:08:05Z</time>
      </trkpt>
      <trkpt lat="47.22252" lon="-1.54966">
        <ele>14.07</ele>
        <time>2017-03-19T14:08:21Z</time>
      </trkpt>
      <trkpt lat="47.22238" lon="-1.54948">
        <ele>14.34</ele>
        <time>2017-03-19T14:08:35Z</time>
      </trkpt>
      <trkpt lat="47.22232" lon="-1.54922">
        <ele>14.75</ele>
        <time>2017-03-19T14:08:56Z</time>
      </trkpt>
      <trkpt lat="47.22216" lon="-1.54904">
        <ele>15.1</ele>
        <time>2017-03-19T14:09:07Z</time>
      </trkpt>
      <trkpt lat="47.22204" lon="-1.54883">
        <ele>16.04</ele>
        <time>2017-03-19T14:09:32Z</time>
      </trkpt>
      <trkpt lat="47.22188" lon="-1.54863">
        <ele>16.67</ele>
        <time>2017-03-19T14:09:50Z</time>
      </trkpt>
      <trkpt lat="47.22181" lon="-1.54835">
        <ele>16.95</ele>
        <time>2017-03-19T14:09:59Z</time>
      </trkpt>
      <trkpt lat="47.22163" lon="-1.54844">
        <ele>17.31</ele>
        <time>2017-03-19T14:10:18Z</time>
      </trkpt>
      <trkpt lat="47.22147" lon="-1.54822">
        <ele>17.94</ele>
        <time>2017-03-19T14:10:38Z</time>
      </trkpt>
      <trkpt lat="47.22138" lon="-1.54798">
        <ele>18.2</ele>
        <time>2017-03-19T14:10:46Z</time>
      </trkpt>
      <trkpt lat="47.22137" lon="-1.54771">
        <ele>19.91</ele>
        <time>2017-03-19T14:11:13Z</time>
      </trkpt>
      <trkpt lat="47.22154" lon="-1.54761">
        <ele>20.84</ele>
        <time>2017-03-19T14:11:31Z</time>
      </trkpt>
      <trkpt lat="47.22143" lon="-1.54737">
        <ele>22.96</ele>
        <time>2017-03-19T14:12:01Z</time>
      </trkpt>
      <trkpt lat="47.22129" lon="-1.54718">
        <ele>23.34</ele>
        <time>2017-03-19T14:12:16Z</time>
      </trkpt>
      <trkpt lat="47.22116" lon="-1.54699">
        <ele>23.07</ele>
        <time>2017-03-19T14:12:35Z</time>
      </trkpt>
      <trkpt lat="47.22103" lon="-1.54679">
        <ele>23.55</ele>
        <time>2017-03-19T14:12:51Z</time>
      </trkpt>
      <trkpt lat="47.22094" lon="-1.54654">
        <ele>24.82</ele>
        <time>2017-03-19T14:13:05Z</time>
      </trkpt>
      <trkpt lat="47.22091" lon="-1.54627">
        <ele>25.37</ele>
        <time>2017-03-19T14:13:23Z</time>
      </trkpt>
      <trkpt lat="47.22077" lon="-1.54609">
        <ele>25.72</ele>
        <time>2017-03-19T14:13:40Z</time>
      </trkpt>
      <trkpt lat="47.22069" lon="-1.54586">
        <ele>25.49</ele>
        <time>2017-03-19T14:13:50Z</time>
      </trkpt>
      <trkpt lat="47.2206" lon="-1.54561">
        <ele>24.69</ele>
        <time>2017-03-19T14:14:07Z</time>
      </trkpt>
      <trkpt lat="47.22045" lon="-1.54544">
        <ele>24.28</ele>
        <time>2017-03-19T14:14:28Z</time>
      </trkpt>
      <trkpt lat="47.2203" lon="-1.54524">
        <ele>24.63</ele>
        <time>2017-03-19T14:14:41Z</time>
      </trkpt>
      <trkpt lat="47.22014" lon="-1.54511">
        <ele>25.26</ele>
        <time>2017-03-19T14:14:55Z</time>
      </trkpt>
      <trkpt lat="47.21996" lon="-1.54518">
        <ele>24.91</ele>
        <time>2017-03-19T14:15:31Z</time>
      </trkpt>
      <trkpt lat="47.21987" lon="-1.54543">
        <ele>23.77</ele>
        <time>2017-03-19T14:15:50Z</time>
      </trkpt>
      <trkpt lat="47.21977" lon="-1.54566">
        <ele>22.67</ele>
        <time>2017-03-19T14:16:06Z</time>
      </trkpt>
      <trkpt lat="47.21968" lon="-1.54591">
        <ele>21.29</ele>
        <time>2017-03-19T14:16:25Z</time>
      </trkpt>
      <trkpt lat="47.21958" lon="-1.54614">
        <ele>20.38</ele>
        <time>2017-03-19T14:16:43Z</time>
      </trkpt>
      <trkpt lat="47.21952" lon="-1.5464">
        <ele>19.67</ele>
        <time>2017-03-19T14:17:03Z</time>
      </trkpt>
      <trkpt lat="47.21944" lon="-1.54666">
        <ele>19.53</ele>
        <time>2017-03-19T14:17:18Z</time>
      </trkpt>
      <trkpt lat="47.21934" lon="-1.5469">
        <ele>19.65</ele>
        <time>2017-03-19T14:17:35Z</time>
      </trkpt>
      <trkpt lat="47.21931" lon="-1.54716">
        <ele>19.54</ele>
        <time>2017-03-19T14:17:52Z</time>
      </trkpt>
      <trkpt lat="47.21921" lon="-1.54741">
        <ele>19.4</ele>
        <time>2017-03-19T14:18:07Z</time>
      </trkpt>
      <trkpt lat="47.2191" lon="-1.54763">
        <ele>19.22</ele>
        <time>2017-03-19T14:18:25Z</time>
      </trkpt>
      <trkpt lat="47.21902" lon="-1.54787">
        <ele>19.25</ele>
        <time>2017-03-19T14:18:38Z</time>
      </trkpt>
      <trkpt lat="47.21892" lon="-1.5481">
        <ele>19.07</ele>
        <time>2017-03-19T14:18:57Z</time>
      </trkpt>
      <trkpt lat="47.21882" lon="-1.54834">
        <ele>18.9</ele>
        <time>2017-03-19T14:19:13Z</time>
      </trkpt>
      <trkpt lat="47.21873" lon="-1.54857">
        <ele>18.66</ele>
        <time>2017-03-19T14:19:32Z</time>
      </trkpt>
      <trkpt lat="47.21887" lon="-1.54875">
        <ele>18.44</ele>
        <time>2017-03-19T14:19:54Z</time>
      </trkpt>
      <trkpt lat="47.21906" lon="-1.54878">
        <ele>18.4</ele>
        <time>2017-03-19T14:20:10Z</time>
      </trkpt>
      <trkpt lat="47.2192" lon="-1.54898">
        <ele>18.67</ele>
        <time>2017-03-19T14:20:25Z</time>
      </trkpt>
      <trkpt lat="47.21934" lon="-1.54914">
        <ele>18.96</ele>
        <time>2017-03-19T14:20:40Z</time>
      </trkpt>
      <trkpt lat="47.21941" lon="-1.54939">
        <ele>19.56</ele>
        <time>2017-03-19T14:20:58Z</time>
      </trkpt>
      <trkpt lat="47.21924" lon="-1.54949">
        <ele>19.88</ele>
        <time>2017-03-19T14:21:13Z</time>
      </trkpt>
      <trkpt lat="47.21913" lon="-1.54928">
        <ele>19.58</ele>
        <time>2017-03-19T14:21:32Z</time>
      </trkpt>
      <trkpt lat="47.219" lon="-1.54908">
        <ele>18.41</ele>
        <time>2017-03-19T14:21:55Z</time>
      </trkpt>
      <trkpt lat="47.21886" lon="-1.54889">
        <ele>17.72</ele>
        <time>2017-03-19T14:22:10Z</time>
      </trkpt>
      <trkpt lat="47.21868" lon="-1.54888">
        <ele>17.45</ele>
        <time>2017-03-19T14:22:24Z</time>
      </trkpt>
      <trkpt lat="47.21852" lon="-1.54875">
        <ele>16.93</ele>
        <time>2017-03-19T14:22:44Z</time>
      </trkpt>
      <trkpt lat="47.21836" lon="-1.54862">
        <ele>16.31</ele>
        <time>2017-03-19T14:23:00Z</time>
      </trkpt>
      <trkpt lat="47.21823" lon="-1.54844">
        <ele>15.43</ele>
        <time>2017-03-19T14:23:18Z</time>
      </trkpt>
      <trkpt lat="47.21807" lon="-1.5483">
        <ele>14.71</ele>
        <time>2017-03-19T14:23:35Z</time>
      </trkpt>
      <trkpt lat="47.21792" lon="-1.54813">
        <ele>12.9</ele>
        <time>2017-03-19T14:24:39Z</time>
      </trkpt>
      <trkpt lat="47.21777" lon="-1.54797">
        <ele>10.99</ele>
        <time>2017-03-19T14:25:25Z</time>
      </trkpt>
    </trkseg>
  </trk>
</gpx>